Minisink Hills, Pennsylvania
Current Conditions -  °F | °C
As of 4:53 PM on Monday 20 Oct 2014 (Local Time) from KMPO Reporting Station
Clear Clear  
Wind Chill: 51°   Ceiling: Unl
Heat Index: 51°   Visibility: 10mi
Dew Point: 36°   Wind: 10mph
Humidity: 56%   Direction: 200°SSW
Pressure: 29.94"   Gusts: NA
Location:  41°N, 75.14°W
Report Text: KMPO 202053Z AUTO 20009KT 10SM CLR 11/02 A2994 RMK AO2 SLP151 T01060022 56011 TSNO
Loading
Personal Weather Stations






























Interactive Weather Map
Tropical Storm Tracking
New forecast layout! Learn more

10-Day Weather Forecast

Advertisements
Track Severe Weather on mobile